sensor_id;sensor_type;location;lat;lon;timestamp;P1;durP1;ratioP1;P2;durP2;ratioP2
43996;SDS011;34318;45.818;15.964;2023-01-23T00:02:15;23.15;;;20.77;;
43996;SDS011;34318;45.818;15.964;2023-01-23T00:04:42;23.92;;;21.33;;
43996;SDS011;34318;45.818;15.964;2023-01-23T00:07:09;23.50;;;21.33;;
43996;SDS011;34318;45.818;15.964;2023-01-23T00:09:37;22.33;;;20.10;;
43996;SDS011;34318;45.818;15.964;2023-01-23T00:12:04;22.40;;;20.30;;
43996;SDS011;34318;45.818;15.964;2023-01-23T00:14:31;22.73;;;20.40;;
43996;SDS011;34318;45.818;15.964;2023-01-23T00:16:58;23.40;;;21.05;;
43996;SDS011;34318;45.818;15.964;2023-01-23T00:19:26;22.65;;;20.33;;
43996;SDS011;34318;45.818;15.964;2023-01-23T00:21:53;21.77;;;19.67;;
43996;SDS011;34318;45.818;15.964;2023-01-23T00:24:20;23.08;;;20.17;;
43996;SDS011;34318;45.818;15.964;2023-01-23T00:26:47;21.42;;;19.48;;
43996;SDS011;34318;45.818;15.964;2023-01-23T00:29:14;23.98;;;19.45;;
43996;SDS011;34318;45.818;15.964;2023-01-23T00:31:41;20.77;;;18.77;;
43996;SDS011;34318;45.818;15.964;2023-01-23T00:34:10;21.95;;;19.90;;
43996;SDS011;34318;45.818;15.964;2023-01-23T00:36:38;20.45;;;18.35;;
43996;SDS011;34318;45.818;15.964;2023-01-23T00:39:07;20.13;;;18.02;;
43996;SDS011;34318;45.818;15.964;2023-01-23T00:41:34;20.10;;;18.13;;
43996;SDS011;34318;45.818;15.964;2023-01-23T00:44:01;21.50;;;19.05;;
43996;SDS011;34318;45.818;15.964;2023-01-23T00:46:29;20.98;;;18.88;;
43996;SDS011;34318;45.818;15.964;2023-01-23T00:48:56;20.98;;;18.80;;
43996;SDS011;34318;45.818;15.964;2023-01-23T00:51:23;19.65;;;17.83;;
43996;SDS011;34318;45.818;15.964;2023-01-23T00:53:50;18.77;;;16.95;;
43996;SDS011;34318;45.818;15.964;2023-01-23T00:56:18;20.58;;;18.58;;
43996;SDS011;34318;45.818;15.964;2023-01-23T00:58:45;19.55;;;17.65;;
43996;SDS011;34318;45.818;15.964;2023-01-23T01:01:13;20.48;;;18.38;;
43996;SDS011;34318;45.818;15.964;2023-01-23T01:03:40;18.95;;;17.02;;
43996;SDS011;34318;45.818;15.964;2023-01-23T01:06:08;20.05;;;18.08;;
43996;SDS011;34318;45.818;15.964;2023-01-23T01:08:35;19.38;;;17.58;;
43996;SDS011;34318;45.818;15.964;2023-01-23T01:11:03;19.13;;;17.42;;
43996;SDS011;34318;45.818;15.964;2023-01-23T01:13:30;18.30;;;16.60;;
43996;SDS011;34318;45.818;15.964;2023-01-23T01:15:57;18.40;;;16.52;;
43996;SDS011;34318;45.818;15.964;2023-01-23T01:18:28;18.88;;;16.90;;
43996;SDS011;34318;45.818;15.964;2023-01-23T01:20:56;17.15;;;15.35;;
43996;SDS011;34318;45.818;15.964;2023-01-23T01:23:23;17.50;;;15.70;;
43996;SDS011;34318;45.818;15.964;2023-01-23T01:25:50;18.83;;;16.95;;
43996;SDS011;34318;45.818;15.964;2023-01-23T01:28:18;18.05;;;16.25;;
43996;SDS011;34318;45.818;15.964;2023-01-23T01:30:45;17.20;;;15.50;;
43996;SDS011;34318;45.818;15.964;2023-01-23T01:33:12;17.10;;;15.40;;
43996;SDS011;34318;45.818;15.964;2023-01-23T01:35:39;17.33;;;15.55;;
43996;SDS011;34318;45.818;15.964;2023-01-23T01:38:06;17.25;;;15.45;;
43996;SDS011;34318;45.818;15.964;2023-01-23T01:40:35;15.88;;;14.20;;
43996;SDS011;34318;45.818;15.964;2023-01-23T01:43:06;16.55;;;15.02;;
43996;SDS011;34318;45.818;15.964;2023-01-23T01:48:20;17.27;;;15.50;;
43996;SDS011;34318;45.818;15.964;2023-01-23T01:50:49;15.70;;;14.25;;
43996;SDS011;34318;45.818;15.964;2023-01-23T01:53:16;15.13;;;13.73;;
43996;SDS011;34318;45.818;15.964;2023-01-23T01:55:43;15.73;;;14.15;;
43996;SDS011;34318;45.818;15.964;2023-01-23T01:58:11;15.57;;;14.18;;
43996;SDS011;34318;45.818;15.964;2023-01-23T02:00:39;15.70;;;14.10;;
43996;SDS011;34318;45.818;15.964;2023-01-23T02:03:06;15.45;;;13.93;;
43996;SDS011;34318;45.818;15.964;2023-01-23T02:05:39;15.40;;;13.93;;
43996;SDS011;34318;45.818;15.964;2023-01-23T02:10:49;14.98;;;13.32;;
43996;SDS011;34318;45.818;15.964;2023-01-23T02:15:45;15.00;;;13.60;;
43996;SDS011;34318;45.818;15.964;2023-01-23T02:18:12;14.65;;;13.30;;
43996;SDS011;34318;45.818;15.964;2023-01-23T02:20:40;16.80;;;14.38;;
43996;SDS011;34318;45.818;15.964;2023-01-23T02:25:54;14.35;;;12.85;;
43996;SDS011;34318;45.818;15.964;2023-01-23T02:28:21;13.20;;;12.00;;
43996;SDS011;34318;45.818;15.964;2023-01-23T02:30:49;13.10;;;11.90;;
43996;SDS011;34318;45.818;15.964;2023-01-23T02:35:47;13.57;;;12.38;;
43996;SDS011;34318;45.818;15.964;2023-01-23T02:38:14;13.50;;;12.15;;
43996;SDS011;34318;45.818;15.964;2023-01-23T02:40:44;13.50;;;12.30;;
43996;SDS011;34318;45.818;15.964;2023-01-23T02:43:12;13.35;;;12.05;;
43996;SDS011;34318;45.818;15.964;2023-01-23T02:45:40;13.13;;;11.70;;
43996;SDS011;34318;45.818;15.964;2023-01-23T02:48:07;13.02;;;11.82;;
43996;SDS011;34318;45.818;15.964;2023-01-23T02:50:34;13.70;;;12.30;;
43996;SDS011;34318;45.818;15.964;2023-01-23T02:53:01;12.77;;;11.43;;
43996;SDS011;34318;45.818;15.964;2023-01-23T02:55:29;13.35;;;12.15;;
43996;SDS011;34318;45.818;15.964;2023-01-23T02:57:58;13.13;;;11.85;;
43996;SDS011;34318;45.818;15.964;2023-01-23T03:00:45;12.02;;;10.93;;
43996;SDS011;34318;45.818;15.964;2023-01-23T03:03:12;12.30;;;11.20;;
43996;SDS011;34318;45.818;15.964;2023-01-23T03:05:41;12.38;;;11.18;;
43996;SDS011;34318;45.818;15.964;2023-01-23T03:08:08;12.23;;;11.13;;
43996;SDS011;34318;45.818;15.964;2023-01-23T03:10:35;11.45;;;10.40;;
43996;SDS011;34318;45.818;15.964;2023-01-23T03:13:02;11.93;;;10.68;;
43996;SDS011;34318;45.818;15.964;2023-01-23T03:15:32;11.35;;;10.27;;
43996;SDS011;34318;45.818;15.964;2023-01-23T03:18:00;11.88;;;10.73;;
43996;SDS011;34318;45.818;15.964;2023-01-23T03:20:27;11.60;;;10.50;;
43996;SDS011;34318;45.818;15.964;2023-01-23T03:22:56;10.95;;;9.95;;
43996;SDS011;34318;45.818;15.964;2023-01-23T03:25:23;10.73;;;9.60;;
43996;SDS011;34318;45.818;15.964;2023-01-23T03:27:50;10.77;;;9.68;;
43996;SDS011;34318;45.818;15.964;2023-01-23T03:30:17;11.23;;;9.77;;
43996;SDS011;34318;45.818;15.964;2023-01-23T03:32:47;20.40;;;10.40;;
43996;SDS011;34318;45.818;15.964;2023-01-23T03:35:15;10.77;;;9.77;;
43996;SDS011;34318;45.818;15.964;2023-01-23T03:37:43;11.13;;;10.02;;
43996;SDS011;34318;45.818;15.964;2023-01-23T03:40:15;11.43;;;10.38;;
43996;SDS011;34318;45.818;15.964;2023-01-23T03:43:01;11.43;;;10.23;;
43996;SDS011;34318;45.818;15.964;2023-01-23T03:45:28;10.80;;;9.80;;
43996;SDS011;34318;45.818;15.964;2023-01-23T03:47:55;10.18;;;9.07;;
43996;SDS011;34318;45.818;15.964;2023-01-23T03:50:22;10.57;;;9.57;;
43996;SDS011;34318;45.818;15.964;2023-01-23T03:52:53;9.98;;;8.55;;
43996;SDS011;34318;45.818;15.964;2023-01-23T03:55:20;9.10;;;8.27;;
43996;SDS011;34318;45.818;15.964;2023-01-23T03:57:47;11.02;;;9.65;;
43996;SDS011;34318;45.818;15.964;2023-01-23T04:00:15;10.20;;;9.27;;
43996;SDS011;34318;45.818;15.964;2023-01-23T04:02:43;9.73;;;8.82;;
43996;SDS011;34318;45.818;15.964;2023-01-23T04:05:10;11.85;;;8.88;;
43996;SDS011;34318;45.818;15.964;2023-01-23T04:07:38;9.23;;;8.43;;
43996;SDS011;34318;45.818;15.964;2023-01-23T04:10:05;10.10;;;9.10;;
43996;SDS011;34318;45.818;15.964;2023-01-23T04:12:32;10.15;;;9.07;;
43996;SDS011;34318;45.818;15.964;2023-01-23T04:14:59;9.23;;;8.30;;
43996;SDS011;34318;45.818;15.964;2023-01-23T04:17:26;9.10;;;8.20;;
43996;SDS011;34318;45.818;15.964;2023-01-23T04:19:54;8.70;;;7.90;;
43996;SDS011;34318;45.818;15.964;2023-01-23T04:22:21;9.10;;;8.20;;
43996;SDS011;34318;45.818;15.964;2023-01-23T04:24:48;10.38;;;8.88;;
43996;SDS011;34318;45.818;15.964;2023-01-23T04:27:15;9.02;;;8.13;;
43996;SDS011;34318;45.818;15.964;2023-01-23T04:29:42;8.68;;;7.85;;
43996;SDS011;34318;45.818;15.964;2023-01-23T04:32:10;9.00;;;8.13;;
43996;SDS011;34318;45.818;15.964;2023-01-23T04:34:37;8.82;;;8.02;;
43996;SDS011;34318;45.818;15.964;2023-01-23T04:37:04;9.40;;;8.40;;
43996;SDS011;34318;45.818;15.964;2023-01-23T04:39:32;9.30;;;8.38;;
43996;SDS011;34318;45.818;15.964;2023-01-23T04:41:59;9.30;;;8.43;;
43996;SDS011;34318;45.818;15.964;2023-01-23T04:44:26;8.73;;;7.93;;
43996;SDS011;34318;45.818;15.964;2023-01-23T04:46:53;8.00;;;7.22;;
43996;SDS011;34318;45.818;15.964;2023-01-23T04:49:21;8.85;;;7.97;;
43996;SDS011;34318;45.818;15.964;2023-01-23T04:51:48;8.25;;;7.45;;
43996;SDS011;34318;45.818;15.964;2023-01-23T04:54:16;8.10;;;7.32;;
43996;SDS011;34318;45.818;15.964;2023-01-23T04:56:43;8.00;;;7.20;;
43996;SDS011;34318;45.818;15.964;2023-01-23T04:59:11;8.23;;;7.35;;
43996;SDS011;34318;45.818;15.964;2023-01-23T05:01:38;9.43;;;7.65;;
43996;SDS011;34318;45.818;15.964;2023-01-23T05:04:08;8.60;;;7.80;;
43996;SDS011;34318;45.818;15.964;2023-01-23T05:06:35;8.40;;;7.55;;
43996;SDS011;34318;45.818;15.964;2023-01-23T05:09:02;8.05;;;7.35;;
43996;SDS011;34318;45.818;15.964;2023-01-23T05:11:30;8.95;;;8.13;;
43996;SDS011;34318;45.818;15.964;2023-01-23T05:13:57;14.07;;;8.30;;
43996;SDS011;34318;45.818;15.964;2023-01-23T05:16:25;8.55;;;7.75;;
43996;SDS011;34318;45.818;15.964;2023-01-23T05:18:52;11.50;;;8.20;;
43996;SDS011;34318;45.818;15.964;2023-01-23T05:21:19;9.05;;;7.25;;
43996;SDS011;34318;45.818;15.964;2023-01-23T05:23:46;8.13;;;7.43;;
43996;SDS011;34318;45.818;15.964;2023-01-23T05:26:13;13.32;;;7.32;;
43996;SDS011;34318;45.818;15.964;2023-01-23T05:28:41;8.35;;;7.47;;
43996;SDS011;34318;45.818;15.964;2023-01-23T05:31:08;7.55;;;6.85;;
43996;SDS011;34318;45.818;15.964;2023-01-23T05:33:35;8.07;;;6.75;;
43996;SDS011;34318;45.818;15.964;2023-01-23T05:36:02;7.90;;;7.20;;
43996;SDS011;34318;45.818;15.964;2023-01-23T05:38:30;8.05;;;7.07;;
43996;SDS011;34318;45.818;15.964;2023-01-23T05:40:57;7.90;;;7.10;;
43996;SDS011;34318;45.818;15.964;2023-01-23T05:43:24;7.28;;;6.65;;
43996;SDS011;34318;45.818;15.964;2023-01-23T05:45:51;9.88;;;7.00;;
43996;SDS011;34318;45.818;15.964;2023-01-23T05:48:18;9.27;;;6.82;;
43996;SDS011;34318;45.818;15.964;2023-01-23T05:50:45;8.20;;;7.38;;
43996;SDS011;34318;45.818;15.964;2023-01-23T05:53:13;7.38;;;6.72;;
43996;SDS011;34318;45.818;15.964;2023-01-23T05:55:40;7.50;;;6.43;;
43996;SDS011;34318;45.818;15.964;2023-01-23T05:58:07;7.20;;;6.53;;
43996;SDS011;34318;45.818;15.964;2023-01-23T06:00:34;7.13;;;6.35;;
43996;SDS011;34318;45.818;15.964;2023-01-23T06:03:01;12.00;;;6.60;;
43996;SDS011;34318;45.818;15.964;2023-01-23T06:05:28;8.77;;;6.07;;
43996;SDS011;34318;45.818;15.964;2023-01-23T06:07:56;8.32;;;6.82;;
43996;SDS011;34318;45.818;15.964;2023-01-23T06:10:23;8.68;;;6.60;;
43996;SDS011;34318;45.818;15.964;2023-01-23T06:12:50;10.13;;;7.28;;
43996;SDS011;34318;45.818;15.964;2023-01-23T06:15:17;7.65;;;6.85;;
43996;SDS011;34318;45.818;15.964;2023-01-23T06:17:44;8.48;;;6.45;;
43996;SDS011;34318;45.818;15.964;2023-01-23T06:20:12;9.95;;;6.45;;
43996;SDS011;34318;45.818;15.964;2023-01-23T06:22:39;11.32;;;6.72;;
43996;SDS011;34318;45.818;15.964;2023-01-23T06:25:06;11.13;;;6.05;;
43996;SDS011;34318;45.818;15.964;2023-01-23T06:27:33;13.43;;;6.70;;
43996;SDS011;34318;45.818;15.964;2023-01-23T06:30:01;8.88;;;6.25;;
43996;SDS011;34318;45.818;15.964;2023-01-23T06:32:28;9.30;;;6.00;;
43996;SDS011;34318;45.818;15.964;2023-01-23T06:34:55;14.60;;;6.38;;
43996;SDS011;34318;45.818;15.964;2023-01-23T06:37:22;13.93;;;6.57;;
43996;SDS011;34318;45.818;15.964;2023-01-23T06:39:49;12.93;;;7.47;;
43996;SDS011;34318;45.818;15.964;2023-01-23T06:42:16;9.88;;;6.28;;
43996;SDS011;34318;45.818;15.964;2023-01-23T06:44:44;7.25;;;6.53;;
43996;SDS011;34318;45.818;15.964;2023-01-23T06:47:11;13.10;;;6.57;;
43996;SDS011;34318;45.818;15.964;2023-01-23T06:49:38;12.45;;;6.65;;
43996;SDS011;34318;45.818;15.964;2023-01-23T06:52:05;10.93;;;7.00;;
43996;SDS011;34318;45.818;15.964;2023-01-23T06:54:32;11.90;;;6.90;;
43996;SDS011;34318;45.818;15.964;2023-01-23T06:56:59;9.32;;;6.35;;
43996;SDS011;34318;45.818;15.964;2023-01-23T06:59:27;22.17;;;6.60;;
43996;SDS011;34318;45.818;15.964;2023-01-23T07:01:54;12.35;;;6.40;;
43996;SDS011;34318;45.818;15.964;2023-01-23T07:04:21;8.00;;;7.20;;
43996;SDS011;34318;45.818;15.964;2023-01-23T07:06:48;8.50;;;6.03;;
43996;SDS011;34318;45.818;15.964;2023-01-23T07:09:15;14.52;;;6.53;;
43996;SDS011;34318;45.818;15.964;2023-01-23T07:11:43;10.63;;;6.35;;
43996;SDS011;34318;45.818;15.964;2023-01-23T07:14:10;8.85;;;6.45;;
43996;SDS011;34318;45.818;15.964;2023-01-23T07:16:37;12.95;;;5.90;;
43996;SDS011;34318;45.818;15.964;2023-01-23T07:19:04;8.52;;;6.25;;
43996;SDS011;34318;45.818;15.964;2023-01-23T07:21:31;9.45;;;6.07;;
43996;SDS011;34318;45.818;15.964;2023-01-23T07:23:59;11.30;;;6.90;;
43996;SDS011;34318;45.818;15.964;2023-01-23T07:26:26;10.70;;;6.65;;
43996;SDS011;34318;45.818;15.964;2023-01-23T07:28:53;10.30;;;5.90;;
43996;SDS011;34318;45.818;15.964;2023-01-23T07:31:21;10.50;;;7.07;;
43996;SDS011;34318;45.818;15.964;2023-01-23T07:33:48;19.08;;;7.30;;
43996;SDS011;34318;45.818;15.964;2023-01-23T07:36:15;12.48;;;6.65;;
43996;SDS011;34318;45.818;15.964;2023-01-23T07:38:43;14.25;;;6.88;;
43996;SDS011;34318;45.818;15.964;2023-01-23T07:41:10;10.13;;;7.05;;
43996;SDS011;34318;45.818;15.964;2023-01-23T07:43:38;12.77;;;6.55;;
43996;SDS011;34318;45.818;15.964;2023-01-23T07:46:05;16.13;;;7.15;;
43996;SDS011;34318;45.818;15.964;2023-01-23T07:48:35;13.32;;;6.70;;
43996;SDS011;34318;45.818;15.964;2023-01-23T07:51:02;14.70;;;7.05;;
43996;SDS011;34318;45.818;15.964;2023-01-23T07:53:30;10.18;;;6.38;;
43996;SDS011;34318;45.818;15.964;2023-01-23T07:55:57;14.95;;;7.22;;
43996;SDS011;34318;45.818;15.964;2023-01-23T07:58:24;14.70;;;6.78;;
43996;SDS011;34318;45.818;15.964;2023-01-23T08:00:52;9.70;;;6.32;;
43996;SDS011;34318;45.818;15.964;2023-01-23T08:03:19;11.07;;;7.10;;
43996;SDS011;34318;45.818;15.964;2023-01-23T08:05:47;15.20;;;7.53;;
43996;SDS011;34318;45.818;15.964;2023-01-23T08:08:14;10.70;;;6.43;;
43996;SDS011;34318;45.818;15.964;2023-01-23T08:10:42;10.52;;;6.90;;
43996;SDS011;34318;45.818;15.964;2023-01-23T08:13:09;8.77;;;6.38;;
43996;SDS011;34318;45.818;15.964;2023-01-23T08:15:36;14.70;;;6.68;;
43996;SDS011;34318;45.818;15.964;2023-01-23T08:18:04;13.25;;;6.70;;
43996;SDS011;34318;45.818;15.964;2023-01-23T08:20:31;12.35;;;7.20;;
43996;SDS011;34318;45.818;15.964;2023-01-23T08:22:58;16.40;;;7.50;;
43996;SDS011;34318;45.818;15.964;2023-01-23T08:25:27;11.27;;;6.18;;
43996;SDS011;34318;45.818;15.964;2023-01-23T08:27:54;9.57;;;5.90;;
43996;SDS011;34318;45.818;15.964;2023-01-23T08:30:22;13.57;;;6.78;;
43996;SDS011;34318;45.818;15.964;2023-01-23T08:32:49;10.00;;;7.05;;
43996;SDS011;34318;45.818;15.964;2023-01-23T08:35:16;12.77;;;6.85;;
43996;SDS011;34318;45.818;15.964;2023-01-23T08:37:43;11.63;;;6.75;;
43996;SDS011;34318;45.818;15.964;2023-01-23T08:40:11;15.35;;;7.30;;
43996;SDS011;34318;45.818;15.964;2023-01-23T08:42:38;14.13;;;6.53;;
43996;SDS011;34318;45.818;15.964;2023-01-23T08:45:05;12.35;;;7.60;;
43996;SDS011;34318;45.818;15.964;2023-01-23T08:47:33;16.15;;;7.22;;
43996;SDS011;34318;45.818;15.964;2023-01-23T08:50:02;14.40;;;6.82;;
43996;SDS011;34318;45.818;15.964;2023-01-23T08:52:29;14.68;;;6.57;;
43996;SDS011;34318;45.818;15.964;2023-01-23T08:54:56;18.30;;;7.35;;
43996;SDS011;34318;45.818;15.964;2023-01-23T08:57:24;14.82;;;6.25;;
43996;SDS011;34318;45.818;15.964;2023-01-23T08:59:51;18.10;;;7.15;;
43996;SDS011;34318;45.818;15.964;2023-01-23T09:02:18;15.68;;;7.38;;
43996;SDS011;34318;45.818;15.964;2023-01-23T09:04:47;15.20;;;7.85;;
43996;SDS011;34318;45.818;15.964;2023-01-23T09:07:15;14.43;;;8.63;;
43996;SDS011;34318;45.818;15.964;2023-01-23T09:09:42;13.23;;;9.38;;
43996;SDS011;34318;45.818;15.964;2023-01-23T09:12:09;14.45;;;8.98;;
43996;SDS011;34318;45.818;15.964;2023-01-23T09:14:36;15.93;;;8.95;;
43996;SDS011;34318;45.818;15.964;2023-01-23T09:17:04;15.05;;;9.65;;
43996;SDS011;34318;45.818;15.964;2023-01-23T09:19:31;13.77;;;10.00;;
43996;SDS011;34318;45.818;15.964;2023-01-23T09:21:59;14.63;;;9.20;;
43996;SDS011;34318;45.818;15.964;2023-01-23T09:24:26;13.00;;;10.10;;
43996;SDS011;34318;45.818;15.964;2023-01-23T09:26:53;13.30;;;8.40;;
43996;SDS011;34318;45.818;15.964;2023-01-23T09:29:20;12.32;;;9.10;;
43996;SDS011;34318;45.818;15.964;2023-01-23T09:31:48;19.25;;;9.65;;
43996;SDS011;34318;45.818;15.964;2023-01-23T09:34:15;10.55;;;9.07;;
43996;SDS011;34318;45.818;15.964;2023-01-23T09:36:42;14.27;;;8.48;;
43996;SDS011;34318;45.818;15.964;2023-01-23T09:39:10;11.38;;;8.55;;
43996;SDS011;34318;45.818;15.964;2023-01-23T09:41:37;10.95;;;8.77;;
43996;SDS011;34318;45.818;15.964;2023-01-23T09:44:19;8.75;;;7.57;;
43996;SDS011;34318;45.818;15.964;2023-01-23T09:49:20;10.02;;;7.82;;
43996;SDS011;34318;45.818;15.964;2023-01-23T09:52:04;12.65;;;8.73;;
43996;SDS011;34318;45.818;15.964;2023-01-23T09:54:42;13.18;;;8.25;;
43996;SDS011;34318;45.818;15.964;2023-01-23T09:57:11;13.43;;;8.52;;
43996;SDS011;34318;45.818;15.964;2023-01-23T09:59:39;11.98;;;7.85;;
43996;SDS011;34318;45.818;15.964;2023-01-23T10:02:24;11.13;;;7.93;;
43996;SDS011;34318;45.818;15.964;2023-01-23T10:04:52;10.35;;;7.57;;
43996;SDS011;34318;45.818;15.964;2023-01-23T10:13:11;9.15;;;7.60;;
43996;SDS011;34318;45.818;15.964;2023-01-23T10:15:19;9.07;;;7.60;;
43996;SDS011;34318;45.818;15.964;2023-01-23T10:20:50;11.00;;;7.45;;
43996;SDS011;34318;45.818;15.964;2023-01-23T10:25:47;12.68;;;7.22;;
43996;SDS011;34318;45.818;15.964;2023-01-23T10:28:16;9.48;;;7.13;;
43996;SDS011;34318;45.818;15.964;2023-01-23T10:30:48;10.10;;;6.80;;
43996;SDS011;34318;45.818;15.964;2023-01-23T10:33:17;10.55;;;7.68;;
43996;SDS011;34318;45.818;15.964;2023-01-23T10:35:46;10.88;;;7.60;;
43996;SDS011;34318;45.818;15.964;2023-01-23T10:40:45;9.68;;;6.88;;
43996;SDS011;34318;45.818;15.964;2023-01-23T10:43:31;9.10;;;7.22;;
43996;SDS011;34318;45.818;15.964;2023-01-23T10:45:59;8.40;;;6.63;;
43996;SDS011;34318;45.818;15.964;2023-01-23T10:50:53;15.40;;;7.15;;
43996;SDS011;34318;45.818;15.964;2023-01-23T10:53:21;8.30;;;7.47;;
43996;SDS011;34318;45.818;15.964;2023-01-23T10:55:50;15.77;;;7.80;;
43996;SDS011;34318;45.818;15.964;2023-01-23T11:00:51;10.10;;;7.40;;
43996;SDS011;34318;45.818;15.964;2023-01-23T11:05:50;9.98;;;7.22;;
43996;SDS011;34318;45.818;15.964;2023-01-23T11:08:25;7.00;;;6.22;;
43996;SDS011;34318;45.818;15.964;2023-01-23T11:10:54;7.38;;;6.68;;
43996;SDS011;34318;45.818;15.964;2023-01-23T11:13:25;9.77;;;6.60;;
43996;SDS011;34318;45.818;15.964;2023-01-23T11:15:53;9.18;;;7.30;;
43996;SDS011;34318;45.818;15.964;2023-01-23T11:18:28;11.68;;;7.20;;
43996;SDS011;34318;45.818;15.964;2023-01-23T11:20:56;7.88;;;7.07;;
43996;SDS011;34318;45.818;15.964;2023-01-23T11:23:23;11.27;;;6.55;;
43996;SDS011;34318;45.818;15.964;2023-01-23T11:25:51;9.80;;;7.15;;
43996;SDS011;34318;45.818;15.964;2023-01-23T11:28:32;8.13;;;6.50;;
43996;SDS011;34318;45.818;15.964;2023-01-23T11:31:14;7.53;;;6.43;;
43996;SDS011;34318;45.818;15.964;2023-01-23T11:36:40;9.32;;;6.03;;
43996;SDS011;34318;45.818;15.964;2023-01-23T11:41:54;8.35;;;6.78;;
43996;SDS011;34318;45.818;15.964;2023-01-23T11:44:23;7.75;;;6.20;;
43996;SDS011;34318;45.818;15.964;2023-01-23T11:47:14;8.68;;;6.97;;
43996;SDS011;34318;45.818;15.964;2023-01-23T12:00:29;7.00;;;6.25;;
43996;SDS011;34318;45.818;15.964;2023-01-23T12:10:53;8.63;;;6.43;;
43996;SDS011;34318;45.818;15.964;2023-01-23T12:21:49;11.23;;;6.70;;
43996;SDS011;34318;45.818;15.964;2023-01-23T12:23:59;8.45;;;6.55;;
43996;SDS011;34318;45.818;15.964;2023-01-23T12:26:28;10.75;;;7.53;;
43996;SDS011;34318;45.818;15.964;2023-01-23T12:31:27;11.25;;;8.57;;
43996;SDS011;34318;45.818;15.964;2023-01-23T12:41:49;14.50;;;10.52;;
43996;SDS011;34318;45.818;15.964;2023-01-23T12:46:58;13.50;;;10.10;;
43996;SDS011;34318;45.818;15.964;2023-01-23T12:52:14;11.18;;;9.32;;
43996;SDS011;34318;45.818;15.964;2023-01-23T12:54:48;11.38;;;10.27;;
43996;SDS011;34318;45.818;15.964;2023-01-23T12:57:17;11.63;;;8.90;;
43996;SDS011;34318;45.818;15.964;2023-01-23T13:06:16;13.23;;;8.32;;
43996;SDS011;34318;45.818;15.964;2023-01-23T13:28:50;15.23;;;9.88;;
43996;SDS011;34318;45.818;15.964;2023-01-23T13:31:32;15.02;;;10.00;;
43996;SDS011;34318;45.818;15.964;2023-01-23T13:34:00;13.50;;;9.02;;
43996;SDS011;34318;45.818;15.964;2023-01-23T13:36:44;10.80;;;9.70;;
43996;SDS011;34318;45.818;15.964;2023-01-23T13:41:39;14.93;;;8.98;;
43996;SDS011;34318;45.818;15.964;2023-01-23T13:46:43;15.50;;;8.10;;
43996;SDS011;34318;45.818;15.964;2023-01-23T13:55:38;11.52;;;7.70;;
43996;SDS011;34318;45.818;15.964;2023-01-23T13:58:39;10.70;;;7.65;;
43996;SDS011;34318;45.818;15.964;2023-01-23T14:01:20;14.90;;;8.18;;
43996;SDS011;34318;45.818;15.964;2023-01-23T14:04:21;12.20;;;7.22;;
43996;SDS011;34318;45.818;15.964;2023-01-23T14:07:26;12.88;;;8.15;;
43996;SDS011;34318;45.818;15.964;2023-01-23T14:10:26;13.13;;;8.13;;
43996;SDS011;34318;45.818;15.964;2023-01-23T14:13:09;16.05;;;8.45;;
43996;SDS011;34318;45.818;15.964;2023-01-23T14:15:51;12.40;;;8.35;;
43996;SDS011;34318;45.818;15.964;2023-01-23T14:18:52;14.05;;;8.13;;
43996;SDS011;34318;45.818;15.964;2023-01-23T14:21:33;11.52;;;7.72;;
43996;SDS011;34318;45.818;15.964;2023-01-23T14:26:49;10.23;;;7.93;;
43996;SDS011;34318;45.818;15.964;2023-01-23T14:29:23;8.38;;;7.40;;
43996;SDS011;34318;45.818;15.964;2023-01-23T14:31:50;10.20;;;7.22;;
43996;SDS011;34318;45.818;15.964;2023-01-23T14:34:22;9.23;;;7.32;;
43996;SDS011;34318;45.818;15.964;2023-01-23T14:36:58;8.18;;;7.10;;
43996;SDS011;34318;45.818;15.964;2023-01-23T14:39:28;7.75;;;6.60;;
43996;SDS011;34318;45.818;15.964;2023-01-23T14:41:56;11.07;;;6.80;;
43996;SDS011;34318;45.818;15.964;2023-01-23T14:44:48;9.48;;;7.45;;
43996;SDS011;34318;45.818;15.964;2023-01-23T14:49:50;8.93;;;7.22;;
43996;SDS011;34318;45.818;15.964;2023-01-23T14:52:20;9.98;;;7.20;;
43996;SDS011;34318;45.818;15.964;2023-01-23T14:54:48;9.90;;;6.70;;
43996;SDS011;34318;45.818;15.964;2023-01-23T14:57:20;10.70;;;7.05;;
43996;SDS011;34318;45.818;15.964;2023-01-23T14:59:48;15.38;;;7.03;;
43996;SDS011;34318;45.818;15.964;2023-01-23T15:02:24;9.52;;;6.85;;
43996;SDS011;34318;45.818;15.964;2023-01-23T15:05:26;11.80;;;7.13;;
43996;SDS011;34318;45.818;15.964;2023-01-23T15:10:18;14.50;;;6.88;;
43996;SDS011;34318;45.818;15.964;2023-01-23T15:12:53;8.32;;;6.82;;
43996;SDS011;34318;45.818;15.964;2023-01-23T15:15:23;13.75;;;7.20;;
43996;SDS011;34318;45.818;15.964;2023-01-23T15:17:51;10.18;;;6.60;;
43996;SDS011;34318;45.818;15.964;2023-01-23T15:20:26;11.55;;;7.32;;
43996;SDS011;34318;45.818;15.964;2023-01-23T15:22:54;9.52;;;6.57;;
43996;SDS011;34318;45.818;15.964;2023-01-23T15:25:39;9.63;;;6.82;;
43996;SDS011;34318;45.818;15.964;2023-01-23T15:30:52;10.65;;;6.50;;
43996;SDS011;34318;45.818;15.964;2023-01-23T15:33:26;9.18;;;6.43;;
43996;SDS011;34318;45.818;15.964;2023-01-23T15:36:01;10.35;;;6.53;;
43996;SDS011;34318;45.818;15.964;2023-01-23T15:38:29;8.15;;;6.00;;
43996;SDS011;34318;45.818;15.964;2023-01-23T15:40:56;6.70;;;5.90;;
43996;SDS011;34318;45.818;15.964;2023-01-23T15:43:23;8.90;;;5.68;;
43996;SDS011;34318;45.818;15.964;2023-01-23T15:45:50;7.75;;;5.70;;
43996;SDS011;34318;45.818;15.964;2023-01-23T15:48:18;8.02;;;6.30;;
43996;SDS011;34318;45.818;15.964;2023-01-23T15:50:46;9.52;;;6.40;;
43996;SDS011;34318;45.818;15.964;2023-01-23T15:53:13;8.18;;;6.00;;
43996;SDS011;34318;45.818;15.964;2023-01-23T15:55:43;10.15;;;6.05;;
43996;SDS011;34318;45.818;15.964;2023-01-23T15:58:13;8.38;;;6.13;;
43996;SDS011;34318;45.818;15.964;2023-01-23T16:00:41;7.75;;;6.57;;
43996;SDS011;34318;45.818;15.964;2023-01-23T16:03:08;7.32;;;6.25;;
43996;SDS011;34318;45.818;15.964;2023-01-23T16:05:36;7.28;;;5.50;;
43996;SDS011;34318;45.818;15.964;2023-01-23T16:08:04;8.68;;;6.60;;
43996;SDS011;34318;45.818;15.964;2023-01-23T16:10:35;11.45;;;6.35;;
43996;SDS011;34318;45.818;15.964;2023-01-23T16:13:03;8.43;;;5.40;;
43996;SDS011;34318;45.818;15.964;2023-01-23T16:15:33;8.80;;;6.03;;
43996;SDS011;34318;45.818;15.964;2023-01-23T16:18:01;10.10;;;5.70;;
43996;SDS011;34318;45.818;15.964;2023-01-23T16:20:32;6.38;;;5.65;;
43996;SDS011;34318;45.818;15.964;2023-01-23T16:23:02;8.43;;;5.20;;
43996;SDS011;34318;45.818;15.964;2023-01-23T16:25:40;14.40;;;5.70;;
43996;SDS011;34318;45.818;15.964;2023-01-23T16:28:14;10.63;;;6.00;;
43996;SDS011;34318;45.818;15.964;2023-01-23T16:30:42;9.13;;;6.55;;
43996;SDS011;34318;45.818;15.964;2023-01-23T16:33:09;9.05;;;6.00;;
43996;SDS011;34318;45.818;15.964;2023-01-23T16:35:36;10.38;;;5.22;;
43996;SDS011;34318;45.818;15.964;2023-01-23T16:38:05;14.90;;;6.22;;
43996;SDS011;34318;45.818;15.964;2023-01-23T16:40:32;8.07;;;6.03;;
43996;SDS011;34318;45.818;15.964;2023-01-23T16:43:00;11.52;;;6.50;;
43996;SDS011;34318;45.818;15.964;2023-01-23T16:45:29;8.23;;;5.35;;
43996;SDS011;34318;45.818;15.964;2023-01-23T16:47:56;8.90;;;6.13;;
43996;SDS011;34318;45.818;15.964;2023-01-23T16:50:29;7.35;;;5.20;;